Nizhnevartovsk, Russia
Current Conditions -  °F | °C
As of 12:00 AM on Wednesday 28 Jan 2015 (Local Time) from USNN Reporting Station
Light Snow Light Snow  
Wind Chill:   Ceiling: 1500
Heat Index: 16°   Visibility: 4mi
Dew Point: 12°   Wind: 11mph
Humidity: 86%   Direction: 220°SW
Pressure: 30"   Gusts: NA
Location:  60.93°N, 76.57°E
Report Text: USNN 271900Z 22005MPS 7000 -SN OVC015 M09/M11 Q1016 NOSIG RMKQFE757 21420332
Loading
Personal Weather Stations






























Interactive Weather Map New forecast layout! Learn more

10-Day Weather Forecast

Advertisements
Track Severe Weather on mobile